createdAt,value
2023-05-20T00:03:15.411Z,12.02
2023-05-20T00:13:41.404Z,11.97
2023-05-20T00:24:07.722Z,11.82
2023-05-20T00:34:33.493Z,11.84
2023-05-20T00:44:59.591Z,11.88
2023-05-20T00:55:25.752Z,11.84
2023-05-20T01:05:51.476Z,11.88
2023-05-20T01:16:19.384Z,11.99
2023-05-20T01:26:48.691Z,12.06
2023-05-20T01:37:16.118Z,12.13
2023-05-20T01:47:41.514Z,12.25
2023-05-20T01:58:07.446Z,12.27
2023-05-20T02:08:33.599Z,12.17
2023-05-20T02:18:59.232Z,12.26
2023-05-20T02:29:24.704Z,12.36
2023-05-20T02:39:51.625Z,12.31
2023-05-20T02:50:17.333Z,12.20
2023-05-20T03:00:43.990Z,12.00
2023-05-20T03:11:09.734Z,11.92
2023-05-20T03:21:35.797Z,12.04
2023-05-20T03:32:01.470Z,12.06
2023-05-20T03:42:27.299Z,11.95
2023-05-20T03:52:53.332Z,11.90
2023-05-20T04:03:19.778Z,11.83
2023-05-20T04:13:45.595Z,11.84
2023-05-20T04:24:11.555Z,11.89
2023-05-20T04:34:37.476Z,12.08
2023-05-20T04:45:06.023Z,12.22
2023-05-20T04:55:32.696Z,12.30
2023-05-20T05:06:00.271Z,12.37
2023-05-20T05:16:26.310Z,12.36
2023-05-20T05:26:56.535Z,12.42
2023-05-20T05:37:22.519Z,12.48
2023-05-20T05:47:48.287Z,12.57
2023-05-20T05:58:14.367Z,12.66
2023-05-20T06:08:40.460Z,12.81
2023-05-20T06:19:06.116Z,12.85
2023-05-20T06:29:32.115Z,12.84
2023-05-20T06:39:58.322Z,12.89
2023-05-20T06:50:25.144Z,12.98
2023-05-20T07:00:51.352Z,13.15
2023-05-20T07:11:16.772Z,13.35
2023-05-20T07:21:42.657Z,13.45
2023-05-20T07:32:10.708Z,13.55
2023-05-20T07:42:35.300Z,13.70
2023-05-20T07:53:00.987Z,13.90
2023-05-20T08:03:27.405Z,14.03
2023-05-20T08:13:53.207Z,14.20
2023-05-20T08:24:19.156Z,14.33
2023-05-20T08:34:45.416Z,14.59
2023-05-20T08:45:14.648Z,14.77
2023-05-20T08:55:54.404Z,14.87
2023-05-20T09:06:20.945Z,15.00
2023-05-20T09:16:46.805Z,15.11
2023-05-20T09:27:13.833Z,15.27
2023-05-20T09:37:40.948Z,15.49
2023-05-20T09:48:09.264Z,15.67
2023-05-20T09:58:37.414Z,15.80
2023-05-20T10:09:19.384Z,15.92
2023-05-20T10:19:45.784Z,16.12
2023-05-20T10:30:19.145Z,16.26
2023-05-20T10:40:44.956Z,16.53
2023-05-20T10:51:17.356Z,16.61
2023-05-20T11:01:45.504Z,16.73
2023-05-20T11:12:11.490Z,17.00
2023-05-20T11:22:37.581Z,17.26
2023-05-20T11:33:05.076Z,17.49
2023-05-20T11:43:30.460Z,17.74
2023-05-20T11:54:05.447Z,17.83
2023-05-20T12:04:31.910Z,18.04
2023-05-20T12:14:58.101Z,18.20
2023-05-20T12:25:23.916Z,18.39
2023-05-20T12:35:49.491Z,18.52
2023-05-20T12:46:15.459Z,18.63
2023-05-20T12:56:42.763Z,18.80
2023-05-20T13:07:08.877Z,18.93
2023-05-20T13:17:34.565Z,19.10
2023-05-20T13:28:00.597Z,19.24
2023-05-20T13:38:26.865Z,19.44
2023-05-20T13:48:52.865Z,19.60
2023-05-20T13:59:19.093Z,19.73
2023-05-20T14:09:45.256Z,19.86
2023-05-20T14:20:12.791Z,19.97
2023-05-20T14:30:39.308Z,20.07
2023-05-20T14:41:05.210Z,20.16
2023-05-20T14:51:31.610Z,20.30
2023-05-20T15:01:57.525Z,20.43
2023-05-20T15:12:23.666Z,20.51
2023-05-20T15:22:49.734Z,20.59
2023-05-20T15:33:16.039Z,20.64
2023-05-20T15:43:42.754Z,20.66
2023-05-20T15:54:08.960Z,20.66
2023-05-20T16:04:35.116Z,20.66
2023-05-20T16:15:00.941Z,20.67
2023-05-20T16:25:26.817Z,20.63
2023-05-20T16:35:52.621Z,20.55
2023-05-20T16:46:18.837Z,20.46
2023-05-20T16:56:44.630Z,20.39
2023-05-20T17:07:11.502Z,20.32
2023-05-20T17:17:37.754Z,20.30
2023-05-20T17:28:03.385Z,20.28
2023-05-20T17:38:29.131Z,20.22
2023-05-20T17:48:55.043Z,20.14
2023-05-20T17:59:21.311Z,20.06
2023-05-20T18:09:47.203Z,19.96
2023-05-20T18:20:15.746Z,19.81
2023-05-20T18:30:41.955Z,19.67
2023-05-20T18:41:07.843Z,19.53
2023-05-20T18:51:34.395Z,19.41
2023-05-20T19:02:00.792Z,19.36
2023-05-20T19:12:26.601Z,19.27
2023-05-20T19:22:53.060Z,19.21
2023-05-20T19:33:18.767Z,19.16
2023-05-20T19:43:44.491Z,19.04
2023-05-20T19:54:10.242Z,18.95
2023-05-20T20:04:36.343Z,18.79
2023-05-20T20:15:02.142Z,18.67
2023-05-20T20:25:28.247Z,18.57
2023-05-20T20:35:55.366Z,18.52
2023-05-20T20:46:21.738Z,18.37
2023-05-20T20:56:47.469Z,18.29
2023-05-20T21:18:21.805Z,17.98
2023-05-20T21:28:47.629Z,17.85
2023-05-20T21:39:13.418Z,17.80
2023-05-20T21:49:39.668Z,17.64
2023-05-20T22:00:06.897Z,17.50
2023-05-20T22:10:33.982Z,17.49
2023-05-20T22:21:00.771Z,17.44
2023-05-20T22:31:27.250Z,17.23
2023-05-20T22:41:53.328Z,17.20
2023-05-20T22:52:21.299Z,17.25
2023-05-20T23:02:50.101Z,17.38
2023-05-20T23:14:11.444Z,17.43
2023-05-20T23:24:37.579Z,17.16
2023-05-20T23:45:48.128Z,17.08
2023-05-20T23:56:13.455Z,17.05
